Time;durP1;ratioP1;P1;durP2;ratioP2;P2;SDS_P1;SDS_P2;PMS_P1;PMS_P2;Temp;Humidity;BMP_temperature;BMP_pressure;BME280_temperature;BME280_humidity;BME280_pressure;Samples;Min_cycle;Max_cycle;Signal;HPM_P1;HPM_P2
2021/09/28 00:00:47;;;;;;;7.22;4.28;;;12.10;88.70;;;;;;5039160;28;20108;-66
2021/09/28 00:03:13;;;;;;;5.70;3.80;;;12.00;88.90;;;;;;5032609;28;20029;-67
2021/09/28 00:05:39;;;;;;;7.13;4.03;;;12.00;89.30;;;;;;5026507;28;20428;-64
2021/09/28 00:08:05;;;;;;;6.65;4.70;;;11.90;89.60;;;;;;5052539;28;20045;-65
2021/09/28 00:10:32;;;;;;;6.25;4.25;;;11.90;89.90;;;;;;5052557;28;20021;-65
2021/09/28 00:12:57;;;;;;;5.40;4.10;;;11.80;90.10;;;;;;5051693;28;20507;-65
2021/09/28 00:15:23;;;;;;;5.03;3.97;;;11.80;90.20;;;;;;5051042;28;20033;-66
2021/09/28 00:17:49;;;;;;;6.63;4.47;;;11.70;90.30;;;;;;5055621;28;20463;-66
2021/09/28 00:20:15;;;;;;;6.60;4.60;;;11.70;90.40;;;;;;5055285;28;20520;-66
2021/09/28 00:22:41;;;;;;;6.03;4.40;;;11.60;90.50;;;;;;5054637;28;20070;-67
2021/09/28 00:25:09;;;;;;;6.93;4.60;;;11.60;90.60;;;;;;5058596;28;20025;-64
2021/09/28 00:27:34;;;;;;;6.78;4.55;;;11.50;90.80;;;;;;5051372;28;20037;-68
2021/09/28 00:30:00;;;;;;;7.35;4.68;;;11.40;91.00;;;;;;5057483;28;20356;-68
2021/09/28 00:32:27;;;;;;;9.23;5.13;;;11.40;91.40;;;;;;5057908;28;20039;-68
2021/09/28 00:34:52;;;;;;;8.07;4.95;;;11.30;91.70;;;;;;5053130;28;20033;-68
2021/09/28 00:37:18;;;;;;;7.15;4.65;;;11.30;91.90;;;;;;5055986;28;20082;-68
2021/09/28 00:39:44;;;;;;;7.82;4.80;;;11.20;92.10;;;;;;5055873;28;20527;-69
2021/09/28 00:42:10;;;;;;;6.45;4.75;;;11.20;92.40;;;;;;5055474;28;20036;-69
2021/09/28 00:44:38;;;;;;;6.47;4.72;;;11.10;92.70;;;;;;5056949;28;20471;-67
2021/09/28 00:47:06;;;;;;;7.00;4.97;;;11.10;93.00;;;;;;5048595;28;20032;-68
2021/09/28 00:49:32;;;;;;;7.63;4.80;;;11.10;93.10;;;;;;5055974;28;20206;-68
2021/09/28 00:51:57;;;;;;;6.32;4.78;;;11.00;93.30;;;;;;5054626;28;20068;-68
2021/09/28 00:54:23;;;;;;;6.10;4.82;;;11.00;93.50;;;;;;5058736;28;20036;-68
2021/09/28 00:56:50;;;;;;;6.90;5.35;;;11.00;93.60;;;;;;5049752;28;20033;-68
2021/09/28 00:59:16;;;;;;;7.05;4.65;;;10.90;93.90;;;;;;5052990;28;20494;-67
2021/09/28 01:01:41;;;;;;;7.45;4.75;;;10.90;94.00;;;;;;5050660;28;20112;-68
2021/09/28 01:04:07;;;;;;;10.90;5.10;;;10.90;94.10;;;;;;5053788;28;20028;-67
2021/09/28 01:06:33;;;;;;;9.13;5.15;;;10.80;94.30;;;;;;5066134;28;20078;-68
2021/09/28 01:09:00;;;;;;;7.50;5.60;;;10.80;94.50;;;;;;5070020;28;20033;-67
2021/09/28 01:11:26;;;;;;;6.90;4.63;;;10.70;94.90;;;;;;5050396;28;20017;-68
2021/09/28 01:13:51;;;;;;;7.20;5.05;;;10.60;95.20;;;;;;5059906;28;20032;-68
2021/09/28 01:16:17;;;;;;;7.63;5.30;;;10.60;95.40;;;;;;5057455;28;20111;-69
2021/09/28 01:18:43;;;;;;;9.43;5.45;;;10.60;95.50;;;;;;5072295;28;20036;-68
2021/09/28 01:21:14;;;;;;;10.50;5.70;;;10.60;95.70;;;;;;5074488;28;20020;-67
2021/09/28 01:23:44;;;;;;;8.77;5.38;;;10.50;95.90;;;;;;5077340;28;20029;-67
2021/09/28 01:26:16;;;;;;;8.18;5.10;;;10.50;96.10;;;;;;5070612;28;20048;-67
2021/09/28 01:28:45;;;;;;;7.55;5.80;;;10.40;96.50;;;;;;5075551;28;20024;-67
2021/09/28 01:31:12;;;;;;;8.13;5.57;;;10.40;96.80;;;;;;5057044;28;20020;-69
2021/09/28 01:33:38;;;;;;;8.85;5.50;;;10.30;96.90;;;;;;5077587;28;20070;-67
2021/09/28 01:36:04;;;;;;;7.93;6.05;;;10.30;97.30;;;;;;5057658;28;20455;-68
2021/09/28 01:38:30;;;;;;;9.88;5.47;;;10.30;97.40;;;;;;5071687;28;20032;-67
2021/09/28 01:40:56;;;;;;;8.38;5.85;;;10.30;97.60;;;;;;5058786;28;20032;-67
2021/09/28 01:43:22;;;;;;;8.63;6.15;;;10.30;97.70;;;;;;5063335;28;20029;-69
2021/09/28 01:45:57;;;;;;;9.32;6.03;;;10.20;97.60;;;;;;5075391;28;20028;-68
2021/09/28 01:48:40;;;;;;;8.60;6.07;;;10.20;98.10;;;;;;5075424;28;20066;-67
2021/09/28 01:51:06;;;;;;;8.52;6.07;;;10.10;98.10;;;;;;5075403;28;20032;-68
2021/09/28 01:53:32;;;;;;;8.73;6.38;;;10.10;98.60;;;;;;5056594;28;20036;-65
2021/09/28 01:55:57;;;;;;;7.53;5.57;;;10.10;98.90;;;;;;5074574;28;20021;-67
2021/09/28 01:58:23;;;;;;;9.02;5.93;;;10.10;99.10;;;;;;5057182;28;20028;-66
2021/09/28 02:00:49;;;;;;;7.97;6.10;;;10.10;99.40;;;;;;5057275;28;20482;-66
2021/09/28 02:03:14;;;;;;;8.07;5.85;;;10.00;99.60;;;;;;5074991;28;20445;-66
2021/09/28 02:05:40;;;;;;;8.75;6.50;;;10.00;99.70;;;;;;5074990;28;20035;-66
2021/09/28 02:08:06;;;;;;;9.68;6.32;;;10.00;99.70;;;;;;5074863;28;20102;-66
2021/09/28 02:10:32;;;;;;;9.52;5.88;;;10.00;99.70;;;;;;5074940;28;20060;-68
2021/09/28 02:12:58;;;;;;;9.77;6.78;;;10.00;99.90;;;;;;5056290;28;20450;-68
2021/09/28 02:15:24;;;;;;;8.07;5.93;;;10.00;99.90;;;;;;5050730;28;20108;-67
2021/09/28 02:17:50;;;;;;;9.32;6.38;;;10.00;99.90;;;;;;5074838;28;20056;-67
2021/09/28 02:20:16;;;;;;;8.55;6.28;;;9.90;99.90;;;;;;5057307;28;20056;-68
2021/09/28 02:22:42;;;;;;;9.45;6.70;;;9.90;99.90;;;;;;5071296;28;20032;-66
2021/09/28 02:25:09;;;;;;;10.20;6.68;;;9.90;99.90;;;;;;5058009;28;20497;-67
2021/09/28 02:27:35;;;;;;;11.98;6.88;;;9.90;99.90;;;;;;5056735;28;20039;-66
2021/09/28 02:30:03;;;;;;;9.20;6.90;;;9.80;99.90;;;;;;5074381;28;20471;-66
2021/09/28 02:32:29;;;;;;;10.23;7.20;;;9.80;99.90;;;;;;5074236;28;20029;-67
2021/09/28 02:34:55;;;;;;;10.45;6.70;;;9.80;99.90;;;;;;5074528;28;20382;-67
2021/09/28 02:37:20;;;;;;;9.77;7.00;;;9.80;99.90;;;;;;5055006;28;20402;-66
2021/09/28 02:39:46;;;;;;;9.98;6.70;;;9.70;99.90;;;;;;5074304;28;20021;-68
2021/09/28 02:42:12;;;;;;;9.90;6.90;;;9.70;99.90;;;;;;5055895;28;20115;-66
2021/09/28 02:44:38;;;;;;;10.13;6.90;;;9.70;99.90;;;;;;5055434;28;20063;-66
2021/09/28 02:47:04;;;;;;;11.32;7.35;;;9.70;99.90;;;;;;5066443;28;20048;-66
2021/09/28 02:49:31;;;;;;;10.73;7.20;;;9.70;99.90;;;;;;5048647;28;20074;-67
2021/09/28 02:51:56;;;;;;;10.48;7.32;;;9.60;99.90;;;;;;5073568;28;20052;-66
2021/09/28 02:54:22;;;;;;;12.88;7.97;;;9.60;99.90;;;;;;5072354;28;20025;-65
2021/09/28 02:56:48;;;;;;;10.85;7.03;;;9.60;99.90;;;;;;5073279;28;20451;-65
2021/09/28 02:59:14;;;;;;;10.32;7.45;;;9.60;99.90;;;;;;5071274;28;20434;-67
2021/09/28 03:01:39;;;;;;;13.38;7.72;;;9.60;99.90;;;;;;5054087;28;20108;-65
2021/09/28 03:04:05;;;;;;;12.15;8.40;;;9.60;99.90;;;;;;5074054;28;20020;-65
2021/09/28 03:06:31;;;;;;;12.43;8.38;;;9.60;99.90;;;;;;5072535;28;20090;-66
2021/09/28 03:08:57;;;;;;;11.10;8.40;;;9.60;99.90;;;;;;5073275;28;20043;-66
2021/09/28 03:11:26;;;;;;;10.98;8.35;;;9.60;99.90;;;;;;5073996;28;20024;-65
2021/09/28 03:13:53;;;;;;;10.00;8.13;;;9.60;99.90;;;;;;5055815;28;20036;-65
2021/09/28 03:16:20;;;;;;;12.10;8.95;;;9.50;99.90;;;;;;5055911;28;20052;-65
2021/09/28 03:18:45;;;;;;;12.85;9.63;;;9.50;99.90;;;;;;5052052;28;20417;-66
2021/09/28 03:21:11;;;;;;;15.15;9.35;;;9.50;99.90;;;;;;5072988;28;20028;-65
2021/09/28 03:23:37;;;;;;;12.43;9.45;;;9.50;99.90;;;;;;5072524;28;20439;-67
2021/09/28 03:26:03;;;;;;;13.30;9.40;;;9.50;99.90;;;;;;5053969;28;20086;-66
2021/09/28 03:28:29;;;;;;;12.52;9.20;;;9.50;99.90;;;;;;5055529;28;20383;-65
2021/09/28 03:30:54;;;;;;;14.30;9.52;;;9.50;99.90;;;;;;5055326;28;20089;-64
2021/09/28 03:33:20;;;;;;;14.15;9.75;;;9.40;99.90;;;;;;5073304;28;20032;-65
2021/09/28 03:35:46;;;;;;;14.10;9.43;;;9.40;99.90;;;;;;5073295;28;20070;-66
2021/09/28 03:38:11;;;;;;;12.13;8.75;;;9.40;99.90;;;;;;5057163;28;20056;-64
2021/09/28 03:40:39;;;;;;;11.40;7.90;;;9.40;99.90;;;;;;5072461;28;20065;-67
2021/09/28 03:43:06;;;;;;;12.57;8.00;;;9.40;99.90;;;;;;5066066;28;20047;-67
2021/09/28 03:45:33;;;;;;;11.40;7.30;;;9.40;99.90;;;;;;5054589;28;20032;-66
2021/09/28 03:47:58;;;;;;;11.77;7.78;;;9.40;99.90;;;;;;5052963;28;20024;-67
2021/09/28 03:50:25;;;;;;;11.27;8.18;;;9.40;99.90;;;;;;5054424;28;20162;-75
2021/09/28 03:52:51;;;;;;;12.60;8.10;;;9.40;99.90;;;;;;5054409;28;20040;-76
2021/09/28 03:55:19;;;;;;;11.82;8.10;;;9.40;99.90;;;;;;5053895;28;20031;-76
2021/09/28 03:57:47;;;;;;;12.32;8.00;;;9.40;99.90;;;;;;5054631;28;20040;-76
2021/09/28 04:00:14;;;;;;;11.07;8.07;;;9.40;99.90;;;;;;5052673;28;20036;-77
2021/09/28 04:02:39;;;;;;;15.32;8.20;;;9.30;99.90;;;;;;5071794;28;20031;-78
2021/09/28 04:05:05;;;;;;;12.82;9.10;;;9.30;99.90;;;;;;5046377;28;20398;-77
2021/09/28 04:07:31;;;;;;;13.30;8.85;;;9.40;99.90;;;;;;5047356;28;20044;-82
2021/09/28 04:10:00;;;;;;;10.98;8.05;;;9.40;99.90;;;;;;5046604;28;20119;-82
2021/09/28 04:12:26;;;;;;;13.10;9.10;;;9.40;99.90;;;;;;5051088;28;20040;-83
2021/09/28 04:14:53;;;;;;;11.93;7.57;;;9.60;99.90;;;;;;5054530;28;20027;-68
2021/09/28 04:17:19;;;;;;;14.98;7.80;;;9.90;99.90;;;;;;5053608;28;20043;-66
2021/09/28 04:19:45;;;;;;;12.93;7.68;;;10.00;99.90;;;;;;5071515;28;20451;-67
2021/09/28 04:22:10;;;;;;;11.48;7.78;;;10.20;99.90;;;;;;5068526;28;20474;-67
2021/09/28 04:24:37;;;;;;;13.60;8.20;;;10.20;99.90;;;;;;5072881;28;20033;-69
2021/09/28 04:27:02;;;;;;;11.25;8.02;;;10.30;99.90;;;;;;5053500;28;20386;-67
2021/09/28 04:29:28;;;;;;;10.32;7.63;;;10.30;99.90;;;;;;5071877;28;20028;-69
2021/09/28 04:31:54;;;;;;;10.82;7.53;;;10.40;99.90;;;;;;5054422;28;20036;-67
2021/09/28 04:34:19;;;;;;;12.15;6.93;;;10.50;99.90;;;;;;5065504;28;20549;-68
2021/09/28 04:36:45;;;;;;;9.27;6.50;;;10.90;99.90;;;;;;5050805;28;20056;-67
2021/09/28 04:39:12;;;;;;;10.75;6.65;;;11.30;99.90;;;;;;5053139;28;20067;-69
2021/09/28 04:41:38;;;;;;;9.00;6.03;;;11.80;99.20;;;;;;5073324;28;20066;-70
2021/09/28 04:44:04;;;;;;;7.75;5.93;;;12.20;96.80;;;;;;5043713;28;20480;-68
2021/09/28 04:46:30;;;;;;;9.43;5.90;;;12.60;94.20;;;;;;5044694;28;20029;-69
2021/09/28 04:48:56;;;;;;;7.90;5.93;;;13.00;92.90;;;;;;5055040;28;20446;-73
2021/09/28 04:51:22;;;;;;;8.00;5.75;;;13.40;91.10;;;;;;5042652;28;20029;-68
2021/09/28 04:53:49;;;;;;;10.15;5.70;;;13.70;88.60;;;;;;5064970;28;20398;-68
2021/09/28 04:56:15;;;;;;;9.35;5.80;;;13.90;85.90;;;;;;5042184;28;20032;-69
2021/09/28 04:58:41;;;;;;;8.05;5.90;;;14.00;84.40;;;;;;5045733;28;20025;-68
2021/09/28 05:01:06;;;;;;;13.65;5.70;;;14.30;83.20;;;;;;5070360;28;20028;-66
2021/09/28 05:03:32;;;;;;;7.45;5.70;;;14.50;81.80;;;;;;5041821;28;20123;-68
2021/09/28 05:05:58;;;;;;;6.80;5.30;;;14.80;80.80;;;;;;5070335;28;20379;-70
2021/09/28 05:08:24;;;;;;;7.97;5.97;;;15.30;79.60;;;;;;5071980;28;20500;-70
2021/09/28 05:10:50;;;;;;;10.98;6.55;;;15.80;77.60;;;;;;5061443;28;20104;-68
2021/09/28 05:13:16;;;;;;;8.20;5.45;;;16.00;74.90;;;;;;5048822;28;20028;-65
2021/09/28 05:15:43;;;;;;;10.77;6.38;;;16.00;73.60;;;;;;5057786;28;20040;-72
2021/09/28 05:18:08;;;;;;;7.82;5.57;;;16.00;72.90;;;;;;5081384;28;20368;-81
2021/09/28 05:20:35;;;;;;;7.80;5.82;;;16.10;72.60;;;;;;5061112;28;20044;-64
2021/09/28 05:23:01;;;;;;;8.85;5.53;;;16.20;72.00;;;;;;5054400;28;20454;-67
2021/09/28 05:25:27;;;;;;;7.63;5.32;;;16.10;70.80;;;;;;5074616;28;20042;-69
2021/09/28 05:27:54;;;;;;;8.70;6.10;;;16.00;70.80;;;;;;5073113;28;20028;-72
2021/09/28 05:30:20;;;;;;;9.18;6.13;;;15.80;70.80;;;;;;5074287;28;20034;-69
2021/09/28 05:32:46;;;;;;;9.60;6.28;;;15.60;71.00;;;;;;5064403;28;20483;-66
2021/09/28 05:35:12;;;;;;;10.27;6.03;;;15.60;71.50;;;;;;5080390;28;20036;-65
2021/09/28 05:37:38;;;;;;;10.93;6.32;;;15.50;71.70;;;;;;5069992;28;20052;-67
2021/09/28 05:40:05;;;;;;;11.32;6.45;;;15.50;72.00;;;;;;5069367;28;20501;-70
2021/09/28 05:42:30;;;;;;;7.72;6.13;;;15.40;71.60;;;;;;5059018;28;20031;-69
2021/09/28 05:44:57;;;;;;;10.32;6.90;;;15.20;71.50;;;;;;5043424;28;20025;-69
2021/09/28 05:47:22;;;;;;;10.52;6.90;;;15.00;71.80;;;;;;5052732;28;20024;-69
2021/09/28 05:49:48;;;;;;;11.82;7.07;;;14.70;71.80;;;;;;5073570;28;20103;-65
2021/09/28 05:52:16;;;;;;;9.85;6.38;;;14.50;72.40;;;;;;5056923;28;20363;-67
2021/09/28 05:54:49;;;;;;;11.18;7.22;;;14.30;73.50;;;;;;5073461;28;20049;-67
2021/09/28 05:57:20;;;;;;;10.25;7.75;;;14.20;74.10;;;;;;5070852;28;20032;-68
2021/09/28 05:59:46;;;;;;;10.02;7.15;;;14.00;74.70;;;;;;5071648;28;20032;-67
2021/09/28 06:02:17;;;;;;;10.07;6.43;;;13.80;75.10;;;;;;5070897;28;20021;-71
2021/09/28 06:04:43;;;;;;;9.43;6.57;;;13.70;76.00;;;;;;5047239;28;20070;-65
2021/09/28 06:07:09;;;;;;;11.73;8.00;;;13.70;76.30;;;;;;5063550;28;20045;-80
2021/09/28 06:09:38;;;;;;;11.20;8.52;;;13.60;76.60;;;;;;5054106;28;20032;-80
2021/09/28 06:12:05;;;;;;;11.10;7.43;;;13.60;76.80;;;;;;5072163;28;20028;-81
2021/09/28 06:14:32;;;;;;;11.05;7.15;;;13.50;76.60;;;;;;5055752;28;20028;-83
2021/09/28 06:16:58;;;;;;;10.75;7.88;;;13.50;76.80;;;;;;5074814;28;20029;-83
2021/09/28 06:19:25;;;;;;;11.20;7.60;;;13.50;77.10;;;;;;5056609;28;20025;-81
2021/09/28 06:21:51;;;;;;;11.18;8.13;;;13.50;77.80;;;;;;5056519;28;20119;-83
2021/09/28 06:24:17;;;;;;;13.30;6.90;;;13.50;77.70;;;;;;5056596;28;20117;-81
2021/09/28 06:26:44;;;;;;;11.60;6.88;;;13.50;77.30;;;;;;5056779;28;20119;-84
2021/09/28 06:29:10;;;;;;;10.43;6.63;;;13.40;77.10;;;;;;5075327;28;20044;-83
2021/09/28 06:31:36;;;;;;;9.57;6.63;;;13.40;77.20;;;;;;5057427;28;20020;-83
2021/09/28 06:34:02;;;;;;;8.15;5.88;;;13.30;77.30;;;;;;5057233;28;20120;-83
2021/09/28 06:36:27;;;;;;;9.57;6.70;;;13.30;77.60;;;;;;5057040;28;20025;-80
2021/09/28 06:38:53;;;;;;;14.90;8.15;;;13.20;77.60;;;;;;5057152;28;20031;-83
2021/09/28 06:41:19;;;;;;;9.27;6.28;;;13.30;77.70;;;;;;5056954;28;20056;-80
2021/09/28 06:43:46;;;;;;;10.82;6.47;;;13.20;77.60;;;;;;5072763;28;20364;-82
2021/09/28 06:46:12;;;;;;;10.68;6.80;;;13.20;77.80;;;;;;5048018;28;20032;-82
2021/09/28 06:48:37;;;;;;;10.77;6.68;;;13.10;78.00;;;;;;5037357;28;20029;-80
2021/09/28 06:51:03;;;;;;;8.48;6.32;;;13.10;78.30;;;;;;5053805;28;20100;-81
2021/09/28 06:53:29;;;;;;;10.65;6.55;;;13.00;78.60;;;;;;5037100;28;20033;-81
2021/09/28 06:55:55;;;;;;;9.38;6.28;;;13.00;78.50;;;;;;5054647;28;20031;-79
2021/09/28 06:58:21;;;;;;;10.35;6.18;;;13.00;78.80;;;;;;5053640;28;20174;-80
2021/09/28 07:00:47;;;;;;;13.05;6.38;;;13.00;79.10;;;;;;5036851;28;20523;-80
2021/09/28 07:03:13;;;;;;;9.90;6.60;;;13.00;79.10;;;;;;5054696;28;20135;-81
2021/09/28 07:05:38;;;;;;;11.27;6.68;;;13.00;79.30;;;;;;5053523;28;20029;-80
2021/09/28 07:08:04;;;;;;;11.52;6.60;;;13.00;79.50;;;;;;5054730;28;20053;-80
2021/09/28 07:10:31;;;;;;;10.88;6.45;;;13.10;79.70;;;;;;5036721;28;20033;-81
2021/09/28 07:12:57;;;;;;;9.20;7.30;;;13.10;79.60;;;;;;5037232;28;20391;-79
2021/09/28 07:15:22;;;;;;;10.13;6.95;;;13.10;79.10;;;;;;5036469;28;20033;-80
2021/09/28 07:17:48;;;;;;;12.10;6.90;;;13.20;79.40;;;;;;5036706;28;20455;-79
2021/09/28 07:20:15;;;;;;;11.05;6.82;;;13.20;79.20;;;;;;5053235;28;20518;-78
2021/09/28 07:22:40;;;;;;;9.60;6.78;;;13.20;79.20;;;;;;5037099;28;20029;-80
2021/09/28 07:25:06;;;;;;;10.88;7.20;;;13.20;79.00;;;;;;5072106;28;20541;-80
2021/09/28 07:27:32;;;;;;;9.55;6.80;;;13.20;79.00;;;;;;5056438;28;20430;-84
2021/09/28 07:29:58;;;;;;;14.15;7.35;;;13.20;79.20;;;;;;5056353;28;20021;-79
2021/09/28 07:32:24;;;;;;;11.45;6.50;;;13.30;79.40;;;;;;5056245;28;20036;-80
2021/09/28 07:34:50;;;;;;;10.82;6.22;;;13.30;79.30;;;;;;5074304;28;20078;-80
2021/09/28 07:37:16;;;;;;;11.55;6.65;;;13.40;79.10;;;;;;5056422;28;20029;-78
2021/09/28 07:39:42;;;;;;;8.60;6.15;;;13.40;78.90;;;;;;5056440;28;20421;-79
2021/09/28 07:42:08;;;;;;;9.05;6.07;;;13.40;78.70;;;;;;5055898;28;20086;-81
2021/09/28 07:44:34;;;;;;;10.65;6.60;;;13.50;78.60;;;;;;5055724;28;20161;-81
2021/09/28 07:47:00;;;;;;;11.40;6.47;;;13.60;78.00;;;;;;5056121;28;20024;-82
2021/09/28 07:49:26;;;;;;;10.77;6.95;;;13.60;77.70;;;;;;5056046;28;20534;-80
2021/09/28 07:51:53;;;;;;;11.85;6.70;;;13.60;77.70;;;;;;5056203;28;20386;-83
2021/09/28 07:54:19;;;;;;;11.63;6.10;;;13.70;77.60;;;;;;5055978;28;20041;-80
2021/09/28 07:56:44;;;;;;;9.80;6.18;;;13.80;78.10;;;;;;5042863;28;20032;-80
2021/09/28 07:59:11;;;;;;;11.52;6.72;;;14.00;77.90;;;;;;5036638;28;20031;-80
2021/09/28 08:01:37;;;;;;;10.55;6.15;;;14.10;77.30;;;;;;5035971;28;20455;-80
2021/09/28 08:04:03;;;;;;;14.10;6.25;;;14.10;76.60;;;;;;5036277;28;20111;-82
2021/09/28 08:06:30;;;;;;;11.77;6.50;;;14.10;76.70;;;;;;5035710;28;20068;-80
2021/09/28 08:08:55;;;;;;;10.85;6.97;;;14.20;76.90;;;;;;5053684;28;20467;-80
2021/09/28 08:11:21;;;;;;;12.30;7.07;;;14.20;76.60;;;;;;5035822;28;20060;-80
2021/09/28 08:13:47;;;;;;;8.60;6.50;;;14.20;76.30;;;;;;5035743;28;20043;-80
2021/09/28 08:16:13;;;;;;;8.55;6.10;;;14.20;76.70;;;;;;5035699;28;20028;-81
2021/09/28 08:18:39;;;;;;;12.25;7.20;;;14.30;76.40;;;;;;5036183;28;20025;-83
2021/09/28 08:21:04;;;;;;;12.45;7.28;;;14.30;76.20;;;;;;5036338;28;20124;-81
2021/09/28 08:23:30;;;;;;;9.18;6.35;;;14.40;75.80;;;;;;5053575;28;20029;-81
2021/09/28 08:29:24;;;;;;;12.02;6.25;;;14.50;76.00;;;;;;5053470;28;20471;-81
2021/09/28 08:31:18;;;;;;;;;;;14.50;75.80;;;;;;5036354;28;20064;-80
2021/09/28 08:33:44;;;;;;;;;;;14.70;76.00;;;;;;5035996;28;20011;-81
2021/09/28 08:36:10;;;;;;;11.88;6.35;;;14.70;75.90;;;;;;5046067;28;19916;-81
2021/09/28 08:38:36;;;;;;;10.77;5.70;;;14.60;75.60;;;;;;5059350;28;20037;-80
2021/09/28 08:41:02;;;;;;;11.00;6.55;;;14.70;75.30;;;;;;5059378;28;20031;-82
2021/09/28 08:43:28;;;;;;;9.63;6.97;;;14.80;75.30;;;;;;5076925;28;20434;-81
2021/09/28 08:45:54;;;;;;;11.40;6.35;;;14.90;75.60;;;;;;5077003;28;20415;-81
2021/09/28 08:48:22;;;;;;;10.90;6.07;;;15.00;75.30;;;;;;5059159;28;20024;-83
2021/09/28 08:50:50;;;;;;;10.30;6.50;;;15.10;75.00;;;;;;5076799;28;20025;-82
2021/09/28 08:53:17;;;;;;;12.50;6.53;;;15.30;75.20;;;;;;5058994;28;20039;-82
2021/09/28 08:55:44;;;;;;;10.68;6.57;;;15.40;74.00;;;;;;5059369;28;20028;-81
2021/09/28 08:58:22;;;;;;;10.88;6.72;;;15.50;73.80;;;;;;5059051;28;20035;-80
2021/09/28 09:00:48;;;;;;;12.85;6.50;;;15.50;73.00;;;;;;5059055;28;20060;-81
2021/09/28 09:03:34;;;;;;;9.98;6.55;;;15.60;73.00;;;;;;5076751;28;20115;-82
2021/09/28 09:06:04;;;;;;;10.70;6.20;;;15.60;72.60;;;;;;5059033;28;20057;-80
2021/09/28 09:08:35;;;;;;;13.10;7.15;;;15.70;72.80;;;;;;5058127;28;20033;-86
2021/09/28 09:11:02;;;;;;;10.23;6.93;;;15.80;72.50;;;;;;5068985;28;20026;-82
2021/09/28 09:13:33;;;;;;;12.80;6.70;;;15.90;71.80;;;;;;5038722;28;20390;-82
2021/09/28 09:15:59;;;;;;;13.07;6.68;;;15.80;71.80;;;;;;5038900;28;20029;-82
2021/09/28 09:18:24;;;;;;;11.98;6.07;;;15.80;71.80;;;;;;5038739;28;20040;-82
2021/09/28 09:20:50;;;;;;;13.63;7.05;;;15.90;71.40;;;;;;5038811;28;20029;-82
2021/09/28 09:23:18;;;;;;;13.43;6.30;;;15.90;71.30;;;;;;5038749;28;20038;-82
2021/09/28 09:25:45;;;;;;;14.25;6.60;;;16.00;71.00;;;;;;5038972;28;20104;-80
2021/09/28 09:28:40;;;;;;;11.55;6.28;;;16.10;71.30;;;;;;5038254;28;20037;-80
2021/09/28 09:31:08;;;;;;;10.23;5.70;;;16.40;70.70;;;;;;5036597;28;20479;-81
2021/09/28 09:33:34;;;;;;;14.50;5.85;;;16.60;70.80;;;;;;5056366;28;20055;-82
2021/09/28 09:35:59;;;;;;;11.98;5.78;;;16.90;69.70;;;;;;5038540;28;20527;-82
2021/09/28 09:38:26;;;;;;;9.65;5.03;;;17.20;68.80;;;;;;5038665;28;20025;-82
2021/09/28 09:40:53;;;;;;;10.48;6.05;;;17.70;68.30;;;;;;5038374;28;20025;-81
2021/09/28 09:43:39;;;;;;;11.98;5.53;;;18.30;67.20;;;;;;5038353;28;20036;-82
2021/09/28 09:46:13;;;;;;;13.40;6.85;;;19.00;65.30;;;;;;5037549;28;20033;-83
2021/09/28 09:48:41;;;;;;;10.02;5.40;;;19.60;63.90;;;;;;5038479;28;20025;-80
2021/09/28 09:51:12;;;;;;;12.55;5.97;;;20.20;61.70;;;;;;5037935;28;20025;-80
2021/09/28 09:53:53;;;;;;;16.45;5.47;;;20.30;61.00;;;;;;5038036;28;20025;-79
2021/09/28 09:56:20;;;;;;;13.38;5.68;;;20.40;60.20;;;;;;5038340;28;20083;-81
2021/09/28 09:58:46;;;;;;;12.63;5.00;;;20.40;59.70;;;;;;5037845;28;20040;-77
2021/09/28 10:01:13;;;;;;;13.02;5.38;;;20.30;59.00;;;;;;5056022;28;20052;-85
2021/09/28 10:03:38;;;;;;;10.85;5.45;;;20.20;58.70;;;;;;5055766;28;20082;-80
2021/09/28 10:06:05;;;;;;;12.10;5.43;;;20.10;58.50;;;;;;5031011;28;20475;-81
2021/09/28 10:08:32;;;;;;;11.13;5.95;;;20.20;58.50;;;;;;5047624;28;20092;-83
2021/09/28 10:10:58;;;;;;;12.70;5.43;;;20.40;58.30;;;;;;5015808;28;20061;-80
2021/09/28 10:13:54;;;;;;;10.73;6.28;;;20.60;58.60;;;;;;5013596;28;20034;-81
2021/09/28 10:16:42;;;;;;;13.05;5.57;;;20.80;58.50;;;;;;5030808;28;20052;-81
2021/09/28 10:19:29;;;;;;;10.75;4.60;;;21.10;58.70;;;;;;5015954;28;20400;-82
2021/09/28 10:21:57;;;;;;;14.38;5.60;;;21.20;57.70;;;;;;5014297;28;20558;-80
2021/09/28 10:24:32;;;;;;;10.98;5.47;;;21.00;56.20;;;;;;5030674;28;20473;-81
2021/09/28 10:27:01;;;;;;;10.43;5.07;;;20.80;56.50;;;;;;5031188;28;20527;-80
2021/09/28 10:29:41;;;;;;;8.40;4.65;;;20.90;56.80;;;;;;5014162;28;20072;-81
2021/09/28 10:32:23;;;;;;;11.95;4.78;;;21.50;55.80;;;;;;5030515;28;20113;-80
2021/09/28 10:35:08;;;;;;;11.93;4.68;;;22.10;55.20;;;;;;5014023;28;20022;-80
2021/09/28 10:37:49;;;;;;;12.30;4.68;;;22.80;54.30;;;;;;5015513;28;20025;-80
2021/09/28 10:40:36;;;;;;;10.85;4.25;;;23.20;53.30;;;;;;5014619;28;20427;-81
2021/09/28 10:43:04;;;;;;;9.85;3.80;;;23.60;52.70;;;;;;5015353;28;20068;-81
2021/09/28 10:45:30;;;;;;;11.13;4.10;;;23.90;51.80;;;;;;5015464;28;20064;-81
2021/09/28 10:47:57;;;;;;;11.75;4.50;;;24.10;51.10;;;;;;5033791;28;20057;-80
2021/09/28 10:50:29;;;;;;;10.13;3.65;;;24.30;50.60;;;;;;5034307;28;20029;-81
2021/09/28 10:53:19;;;;;;;11.10;3.88;;;24.30;49.90;;;;;;5033493;28;20125;-80
2021/09/28 10:55:54;;;;;;;7.93;3.75;;;24.30;49.20;;;;;;5026810;28;20434;-80
2021/09/28 10:58:20;;;;;;;11.23;3.50;;;24.50;48.80;;;;;;5032680;28;20025;-80
2021/09/28 11:00:48;;;;;;;16.33;3.80;;;24.50;48.90;;;;;;5034787;28;20052;-80
2021/09/28 11:03:13;;;;;;;14.43;3.30;;;24.70;48.10;;;;;;5033445;28;20029;-81
2021/09/28 11:05:42;;;;;;;11.88;3.55;;;24.90;48.10;;;;;;5033589;28;20025;-80
2021/09/28 11:08:14;;;;;;;12.43;3.45;;;25.00;47.50;;;;;;5033067;28;20069;-80
2021/09/28 11:10:53;;;;;;;11.25;3.15;;;25.00;46.60;;;;;;5033516;28;20542;-80
2021/09/28 11:13:19;;;;;;;12.50;3.50;;;24.90;46.50;;;;;;5034690;28;20033;-79
2021/09/28 11:15:44;;;;;;;15.80;3.35;;;24.90;46.10;;;;;;5033836;28;20029;-79
2021/09/28 11:18:15;;;;;;;14.02;3.70;;;24.90;46.30;;;;;;5034438;28;20025;-79
2021/09/28 11:20:41;;;;;;;13.88;4.07;;;25.00;45.70;;;;;;5034242;28;20443;-80
2021/09/28 11:23:10;;;;;;;13.38;3.08;;;25.10;46.00;;;;;;5034622;28;20030;-80
2021/09/28 11:25:37;;;;;;;13.85;3.50;;;25.20;45.80;;;;;;5032733;28;20078;-80
2021/09/28 11:28:09;;;;;;;12.75;3.75;;;25.30;45.90;;;;;;5034079;28;20032;-79
2021/09/28 11:30:38;;;;;;;14.32;3.47;;;25.30;45.60;;;;;;5033057;28;20053;-79
2021/09/28 11:33:06;;;;;;;12.50;3.60;;;25.40;45.80;;;;;;5032765;28;20029;-80
2021/09/28 11:35:33;;;;;;;13.38;3.90;;;25.40;45.40;;;;;;5032879;28;20030;-84
2021/09/28 11:38:04;;;;;;;12.77;3.53;;;25.40;45.30;;;;;;5032849;28;20029;-80
2021/09/28 11:40:36;;;;;;;20.55;4.00;;;25.50;44.60;;;;;;5032631;28;20456;-79
2021/09/28 11:43:18;;;;;;;15.63;3.40;;;25.50;44.10;;;;;;5032839;28;20026;-79
2021/09/28 11:45:43;;;;;;;15.02;3.40;;;25.30;44.40;;;;;;5032252;28;20470;-79
2021/09/28 11:48:09;;;;;;;15.10;4.30;;;24.90;44.90;;;;;;5033752;28;20100;-79
2021/09/28 11:50:35;;;;;;;14.15;3.92;;;24.40;44.70;;;;;;5032832;28;20129;-78
2021/09/28 11:53:07;;;;;;;13.00;3.33;;;23.60;45.60;;;;;;5033917;28;20033;-80
2021/09/28 11:55:33;;;;;;;11.82;3.40;;;22.80;46.60;;;;;;5033607;28;20044;-78
2021/09/28 11:57:59;;;;;;;12.80;3.70;;;21.90;47.80;;;;;;5032295;28;20040;-79
2021/09/28 12:00:25;;;;;;;11.93;3.33;;;21.30;49.20;;;;;;5032111;28;20063;-79
2021/09/28 12:03:06;;;;;;;9.93;3.45;;;20.70;50.60;;;;;;5032409;28;20029;-83
2021/09/28 12:08:24;;;;;;;12.63;3.80;;;19.60;52.60;;;;;;5014594;28;20050;-80
2021/09/28 12:10:51;;;;;;;15.20;3.72;;;19.10;54.20;;;;;;5012448;28;20121;-78
2021/09/28 12:13:21;;;;;;;12.77;4.10;;;18.70;54.50;;;;;;5013935;28;20080;-79
2021/09/28 12:16:02;;;;;;;10.85;4.18;;;18.30;55.60;;;;;;5012566;28;20388;-81
2021/09/28 12:18:28;;;;;;;10.55;3.65;;;17.90;57.00;;;;;;5012573;28;20041;-79
2021/09/28 12:21:17;;;;;;;13.38;3.63;;;17.60;57.90;;;;;;5012284;28;20025;-78
2021/09/28 12:23:44;;;;;;;7.97;2.90;;;17.30;59.70;;;;;;5012676;28;20120;-79
2021/09/28 12:26:28;;;;;;;14.20;3.30;;;16.80;60.80;;;;;;5012865;28;20033;-79
2021/09/28 12:28:55;;;;;;;14.65;3.65;;;16.40;62.30;;;;;;5012457;28;20115;-78
2021/09/28 12:31:36;;;;;;;13.55;3.88;;;16.10;63.60;;;;;;5012275;28;20030;-80
2021/09/28 12:34:02;;;;;;;13.15;4.07;;;15.80;65.60;;;;;;5012441;28;20041;-79
2021/09/28 12:36:28;;;;;;;16.50;3.83;;;15.50;67.20;;;;;;5012656;28;20169;-79
2021/09/28 12:39:17;;;;;;;14.25;4.15;;;15.40;68.80;;;;;;5012490;28;20069;-78
2021/09/28 12:42:08;;;;;;;13.82;4.07;;;15.30;70.00;;;;;;5012387;28;20030;-79
2021/09/28 12:44:37;;;;;;;20.83;4.05;;;15.20;70.70;;;;;;5012480;28;20144;-80
2021/09/28 12:47:26;;;;;;;13.55;3.92;;;15.10;71.60;;;;;;5020786;28;20067;-81
2021/09/28 12:49:52;;;;;;;14.23;4.30;;;15.00;71.30;;;;;;5032055;28;20117;-82
2021/09/28 12:52:18;;;;;;;14.75;4.32;;;15.00;71.30;;;;;;5031663;28;20120;-79